createdAt,value
2018-08-31T00:00:00.756Z,9.63
2018-08-31T00:02:54.054Z,11.57
2018-08-31T00:05:46.009Z,10.13
2018-08-31T00:08:31.696Z,10.03
2018-08-31T00:13:19.620Z,9.40
2018-08-31T00:15:54.101Z,10.30
2018-08-31T00:18:28.836Z,9.60
2018-08-31T00:21:03.380Z,8.77
2018-08-31T00:23:49.532Z,11.37
2018-08-31T00:26:35.357Z,9.77
2018-08-31T00:29:49.176Z,9.00
2018-08-31T00:34:38.175Z,9.93
2018-08-31T00:37:23.075Z,11.00
2018-08-31T00:40:11.344Z,10.80
2018-08-31T00:45:03.640Z,12.40
2018-08-31T00:47:38.056Z,11.67
2018-08-31T00:50:12.717Z,12.03
2018-08-31T00:52:47.708Z,10.60
2018-08-31T00:55:22.107Z,12.03
2018-08-31T00:57:57.019Z,11.47
2018-08-31T01:00:32.055Z,11.07
2018-08-31T01:03:06.828Z,12.83
2018-08-31T01:05:42.372Z,11.83
2018-08-31T01:08:16.995Z,10.67
2018-08-31T01:10:51.974Z,11.47
2018-08-31T01:13:27.319Z,11.60
2018-08-31T01:16:02.352Z,10.70
2018-08-31T01:18:37.067Z,13.93
2018-08-31T01:21:12.096Z,10.47
2018-08-31T01:23:46.956Z,12.33
2018-08-31T01:26:22.331Z,11.60
2018-08-31T01:28:57.259Z,11.33
2018-08-31T01:31:31.783Z,12.50
2018-08-31T01:34:06.625Z,10.50
2018-08-31T01:36:41.036Z,10.33
2018-08-31T01:39:15.989Z,10.13
2018-08-31T01:41:50.544Z,11.97
2018-08-31T01:44:25.424Z,14.23
2018-08-31T01:47:00.098Z,11.23
2018-08-31T01:49:34.692Z,13.17
2018-08-31T01:52:09.181Z,11.17
2018-08-31T01:54:43.553Z,10.80
2018-08-31T01:57:18.232Z,11.13
2018-08-31T01:59:53.120Z,10.73
2018-08-31T02:02:27.651Z,11.83
2018-08-31T02:05:02.190Z,11.50
2018-08-31T02:07:36.497Z,12.87
2018-08-31T02:10:11.467Z,14.53
2018-08-31T02:12:46.163Z,18.23
2018-08-31T02:15:20.944Z,16.23
2018-08-31T02:17:55.709Z,17.03
2018-08-31T02:20:30.463Z,17.53
2018-08-31T02:23:04.907Z,17.70
2018-08-31T02:25:39.580Z,18.13
2018-08-31T02:28:14.331Z,17.47
2018-08-31T02:30:48.832Z,20.47
2018-08-31T02:33:23.305Z,16.23
2018-08-31T02:35:59.618Z,17.30
2018-08-31T02:38:34.206Z,18.03
2018-08-31T02:41:09.021Z,17.03
2018-08-31T02:43:44.779Z,16.60
2018-08-31T02:46:21.557Z,16.10
2018-08-31T02:48:56.239Z,16.93
2018-08-31T02:51:30.540Z,15.90
2018-08-31T02:54:05.371Z,18.93
2018-08-31T02:56:39.852Z,16.13
2018-08-31T02:59:14.511Z,14.77
2018-08-31T03:01:48.771Z,15.67
2018-08-31T03:04:23.549Z,17.10
2018-08-31T03:06:58.414Z,18.40
2018-08-31T03:09:33.500Z,18.57
2018-08-31T03:12:08.952Z,17.73
2018-08-31T03:14:43.768Z,16.07
2018-08-31T03:17:18.371Z,17.23
2018-08-31T03:19:53.046Z,19.70
2018-08-31T03:22:27.418Z,16.60
2018-08-31T03:25:01.852Z,16.90
2018-08-31T03:27:37.001Z,17.27
2018-08-31T03:30:12.182Z,19.97
2018-08-31T03:32:47.277Z,20.27
2018-08-31T03:35:21.981Z,24.43
2018-08-31T03:37:56.769Z,23.23
2018-08-31T03:40:31.863Z,23.60
2018-08-31T03:43:06.771Z,22.67
2018-08-31T03:45:41.236Z,21.30
2018-08-31T03:48:16.132Z,25.33
2018-08-31T03:50:50.981Z,23.30
2018-08-31T03:53:26.020Z,25.73
2018-08-31T03:56:00.599Z,24.27
2018-08-31T03:58:35.416Z,22.70
2018-08-31T04:01:10.020Z,21.20
2018-08-31T04:03:44.875Z,21.90
2018-08-31T04:06:19.658Z,22.90
2018-08-31T04:08:54.915Z,22.03
2018-08-31T04:11:29.600Z,24.60
2018-08-31T04:14:05.394Z,26.93
2018-08-31T04:16:39.703Z,24.50
2018-08-31T04:19:18.503Z,23.80
2018-08-31T04:21:53.387Z,23.47
2018-08-31T04:24:28.946Z,25.10
2018-08-31T04:27:03.805Z,26.13
2018-08-31T04:29:38.661Z,24.07
2018-08-31T04:32:14.317Z,27.07
2018-08-31T04:34:48.804Z,25.93
2018-08-31T04:37:23.153Z,23.33
2018-08-31T04:39:57.948Z,23.47
2018-08-31T04:42:32.403Z,23.13
2018-08-31T04:45:06.734Z,23.87
2018-08-31T04:47:41.275Z,23.43
2018-08-31T04:50:15.887Z,29.10
2018-08-31T04:52:51.181Z,25.90
2018-08-31T04:55:26.269Z,24.93
2018-08-31T04:58:01.128Z,22.93
2018-08-31T05:00:35.499Z,26.13
2018-08-31T05:03:10.199Z,27.87
2018-08-31T05:05:44.786Z,24.37
2018-08-31T05:08:20.086Z,22.57
2018-08-31T05:10:54.788Z,24.83
2018-08-31T05:13:29.263Z,25.53
2018-08-31T05:16:04.095Z,24.77
2018-08-31T05:18:39.028Z,26.20
2018-08-31T05:21:13.462Z,23.87
2018-08-31T05:23:48.256Z,24.07
2018-08-31T05:26:22.800Z,23.50
2018-08-31T05:28:57.579Z,26.40
2018-08-31T05:31:32.342Z,27.90
2018-08-31T05:34:07.695Z,26.10
2018-08-31T05:36:42.939Z,27.40
2018-08-31T05:39:17.824Z,28.50
2018-08-31T05:41:52.242Z,27.73
2018-08-31T05:44:26.555Z,28.13
2018-08-31T05:47:02.223Z,28.47
2018-08-31T05:49:36.887Z,28.43
2018-08-31T05:52:11.228Z,29.90
2018-08-31T05:54:46.008Z,29.10
2018-08-31T05:57:20.571Z,27.30
2018-08-31T05:59:55.452Z,29.37
2018-08-31T06:02:30.093Z,30.40
2018-08-31T06:05:04.872Z,27.90
2018-08-31T06:07:39.352Z,27.00
2018-08-31T06:10:13.822Z,32.43
2018-08-31T06:12:48.287Z,25.87
2018-08-31T06:15:22.988Z,27.47
2018-08-31T06:17:57.638Z,32.27
2018-08-31T06:20:32.157Z,32.63
2018-08-31T06:23:07.156Z,27.47
2018-08-31T06:25:41.743Z,26.57
2018-08-31T06:28:16.195Z,28.53
2018-08-31T06:30:50.651Z,28.43
2018-08-31T06:33:25.505Z,27.20
2018-08-31T06:35:59.867Z,28.73
2018-08-31T06:38:34.736Z,28.27
2018-08-31T06:41:09.739Z,26.90
2018-08-31T06:43:44.204Z,27.87
2018-08-31T06:46:19.299Z,26.90
2018-08-31T06:48:54.516Z,27.17
2018-08-31T06:51:29.803Z,28.27
2018-08-31T06:54:05.208Z,26.97
2018-08-31T06:56:39.745Z,27.50
2018-08-31T06:59:14.516Z,26.80
2018-08-31T07:01:48.912Z,26.17
2018-08-31T07:04:23.605Z,25.50
2018-08-31T07:06:58.970Z,27.43
2018-08-31T07:09:33.771Z,25.37
2018-08-31T07:12:08.292Z,26.50
2018-08-31T07:14:43.436Z,26.43
2018-08-31T07:17:18.398Z,26.87
2018-08-31T07:19:54.634Z,25.67
2018-08-31T07:22:29.643Z,28.33
2018-08-31T07:25:04.599Z,28.57
2018-08-31T07:27:39.172Z,30.00
2018-08-31T07:30:14.776Z,31.37
2018-08-31T07:32:49.483Z,30.97
2018-08-31T07:35:23.823Z,28.63
2018-08-31T07:40:36.187Z,29.37
2018-08-31T07:43:10.886Z,31.97
2018-08-31T07:45:45.896Z,28.80
2018-08-31T07:48:20.746Z,34.20
2018-08-31T07:50:55.749Z,33.23
2018-08-31T07:53:30.646Z,31.50
2018-08-31T07:56:05.774Z,30.53
2018-08-31T07:58:40.204Z,32.17
2018-08-31T08:01:15.164Z,28.10
2018-08-31T08:03:49.952Z,25.83
2018-08-31T08:06:24.813Z,27.40
2018-08-31T08:08:59.453Z,28.67
2018-08-31T08:11:34.263Z,30.53
2018-08-31T08:14:09.466Z,27.97
2018-08-31T08:16:43.993Z,27.47
2018-08-31T08:19:18.786Z,27.83
2018-08-31T08:21:53.355Z,29.70
2018-08-31T08:24:27.995Z,28.30
2018-08-31T08:27:02.841Z,28.73
2018-08-31T08:29:37.397Z,30.23
2018-08-31T08:35:05.005Z,29.93
2018-08-31T08:37:40.676Z,29.10
2018-08-31T08:40:15.312Z,26.13
2018-08-31T08:42:50.081Z,31.90
2018-08-31T08:45:27.076Z,30.33
2018-08-31T08:48:01.990Z,30.20
2018-08-31T08:50:36.584Z,35.37
2018-08-31T08:53:17.547Z,30.63
2018-08-31T08:55:52.630Z,31.80
2018-08-31T08:58:29.155Z,33.67
2018-08-31T09:01:03.884Z,30.87
2018-08-31T09:03:38.756Z,31.50
2018-08-31T09:06:13.964Z,40.67
2018-08-31T09:08:48.402Z,38.87
2018-08-31T09:11:23.355Z,35.60
2018-08-31T09:13:59.863Z,39.30
2018-08-31T09:16:39.446Z,35.83
2018-08-31T09:19:14.759Z,37.27
2018-08-31T09:21:49.751Z,40.73
2018-08-31T09:24:24.396Z,45.20
2018-08-31T09:26:59.179Z,43.37
2018-08-31T09:29:34.043Z,44.67
2018-08-31T09:32:14.192Z,43.17
2018-08-31T09:34:52.095Z,44.33
2018-08-31T09:37:27.223Z,45.43
2018-08-31T09:40:01.922Z,44.23
2018-08-31T09:42:36.925Z,40.67
2018-08-31T09:45:12.308Z,38.67
2018-08-31T09:47:46.802Z,40.43
2018-08-31T09:50:21.455Z,38.77
2018-08-31T09:52:56.176Z,34.90
2018-08-31T09:55:31.260Z,34.40
2018-08-31T09:58:05.571Z,35.57
2018-08-31T10:00:45.747Z,36.20
2018-08-31T10:03:22.441Z,35.97
2018-08-31T10:05:57.169Z,35.27
2018-08-31T10:08:32.280Z,33.93
2018-08-31T10:11:06.579Z,33.83
2018-08-31T10:13:41.076Z,36.63
2018-08-31T10:16:15.984Z,39.37
2018-08-31T10:18:50.319Z,38.60
2018-08-31T10:21:25.361Z,33.93
2018-08-31T10:23:59.921Z,35.20
2018-08-31T10:26:34.756Z,31.63
2018-08-31T10:29:09.858Z,31.13
2018-08-31T10:31:44.921Z,30.40
2018-08-31T10:34:19.776Z,30.17
2018-08-31T10:36:54.748Z,41.27
2018-08-31T10:39:29.594Z,32.57
2018-08-31T10:42:04.796Z,31.70
2018-08-31T10:44:39.686Z,34.27
2018-08-31T10:47:14.458Z,33.53
2018-08-31T10:49:49.452Z,29.30
2018-08-31T10:52:24.163Z,29.77
2018-08-31T10:54:59.032Z,31.30
2018-08-31T10:57:34.211Z,38.47
2018-08-31T11:00:08.739Z,35.53
2018-08-31T11:02:43.904Z,37.77
2018-08-31T11:05:18.183Z,34.37
2018-08-31T11:07:53.341Z,39.00
2018-08-31T11:10:28.088Z,41.37
2018-08-31T11:13:07.211Z,35.77
2018-08-31T11:15:43.303Z,34.23
2018-08-31T11:18:18.457Z,42.13
2018-08-31T11:20:55.813Z,36.63
2018-08-31T11:23:30.999Z,32.90
2018-08-31T11:26:05.753Z,32.27
2018-08-31T11:28:42.134Z,35.27
2018-08-31T11:31:16.896Z,31.50
2018-08-31T11:33:52.100Z,27.33
2018-08-31T11:36:27.162Z,28.27
2018-08-31T11:39:01.687Z,30.03
2018-08-31T11:41:36.414Z,32.00
2018-08-31T11:44:10.861Z,29.43
2018-08-31T11:46:45.711Z,27.67
2018-08-31T11:49:20.736Z,32.60
2018-08-31T11:51:55.268Z,34.43
2018-08-31T11:54:29.911Z,30.20
2018-08-31T11:57:06.024Z,28.20
2018-08-31T11:59:40.854Z,32.47
2018-08-31T12:02:15.272Z,30.13
2018-08-31T12:04:50.368Z,28.57
2018-08-31T12:07:25.439Z,28.27
2018-08-31T12:10:00.079Z,26.13
2018-08-31T12:12:34.948Z,20.90
2018-08-31T12:15:09.844Z,19.10
2018-08-31T12:17:44.334Z,18.30
2018-08-31T12:20:18.904Z,20.40
2018-08-31T12:22:54.156Z,19.30
2018-08-31T12:25:29.037Z,22.20
2018-08-31T12:28:08.643Z,19.57
2018-08-31T12:30:44.872Z,18.87
2018-08-31T12:33:19.185Z,21.00
2018-08-31T12:35:54.851Z,19.57
2018-08-31T12:38:29.487Z,16.77
2018-08-31T12:41:03.983Z,16.63
2018-08-31T12:43:38.685Z,17.20
2018-08-31T12:46:14.176Z,19.37
2018-08-31T12:48:48.758Z,19.60
2018-08-31T12:51:26.107Z,17.17
2018-08-31T12:54:00.559Z,17.47
2018-08-31T12:56:35.760Z,17.60
2018-08-31T12:59:10.443Z,15.40
2018-08-31T13:01:46.570Z,16.53
2018-08-31T13:04:21.428Z,16.40
2018-08-31T13:06:56.465Z,16.20
2018-08-31T13:09:31.123Z,14.50
2018-08-31T13:12:06.316Z,15.50
2018-08-31T13:14:41.200Z,15.30
2018-08-31T13:17:15.861Z,15.90
2018-08-31T13:19:50.632Z,17.53
2018-08-31T13:22:26.472Z,17.80
2018-08-31T13:25:01.225Z,17.57
2018-08-31T13:27:36.856Z,16.93
2018-08-31T13:30:11.578Z,16.80
2018-08-31T13:32:46.160Z,17.87
2018-08-31T13:35:21.076Z,18.90
2018-08-31T13:37:57.890Z,17.23
2018-08-31T13:40:33.384Z,18.53
2018-08-31T13:43:08.097Z,17.43
2018-08-31T13:45:42.660Z,16.97
2018-08-31T13:48:17.176Z,21.13
2018-08-31T13:50:51.812Z,20.93
2018-08-31T13:53:26.491Z,21.97
2018-08-31T13:56:01.847Z,23.27
2018-08-31T13:58:36.245Z,24.10
2018-08-31T14:01:11.091Z,23.70
2018-08-31T14:03:45.391Z,24.57
2018-08-31T14:06:20.108Z,26.10
2018-08-31T14:08:54.534Z,23.50
2018-08-31T14:11:29.411Z,25.80
2018-08-31T14:14:03.836Z,22.17
2018-08-31T14:16:38.429Z,23.13
2018-08-31T14:19:13.314Z,24.17
2018-08-31T14:21:48.437Z,19.40
2018-08-31T14:24:23.708Z,20.53
2018-08-31T14:26:59.175Z,19.60
2018-08-31T14:29:33.908Z,20.67
2018-08-31T14:32:08.912Z,19.80
2018-08-31T14:34:44.183Z,18.37
2018-08-31T14:37:19.223Z,21.03
2018-08-31T14:39:53.530Z,18.60
2018-08-31T14:42:28.080Z,19.57
2018-08-31T14:45:05.337Z,19.77
2018-08-31T14:47:40.275Z,19.60
2018-08-31T14:50:14.978Z,19.30
2018-08-31T14:52:49.797Z,18.43
2018-08-31T14:55:24.514Z,19.60
2018-08-31T14:57:59.468Z,19.53
2018-08-31T15:00:42.127Z,23.97
2018-08-31T15:03:19.364Z,22.13
2018-08-31T15:05:54.649Z,21.47
2018-08-31T15:08:29.703Z,22.60
2018-08-31T15:11:04.600Z,25.77
2018-08-31T15:13:39.040Z,26.10
2018-08-31T15:16:13.423Z,23.80
2018-08-31T15:18:48.030Z,22.60
2018-08-31T15:21:22.795Z,21.77
2018-08-31T15:23:57.185Z,22.87
2018-08-31T15:26:31.722Z,23.33
2018-08-31T15:29:06.686Z,22.53
2018-08-31T15:31:41.318Z,22.67
2018-08-31T15:34:16.199Z,20.47
2018-08-31T15:36:50.634Z,19.57
2018-08-31T15:39:25.817Z,21.93
2018-08-31T15:42:02.204Z,21.47
2018-08-31T15:44:36.929Z,21.63
2018-08-31T15:47:12.237Z,21.83
2018-08-31T15:49:47.109Z,21.83
2018-08-31T15:52:21.908Z,20.93
2018-08-31T15:54:56.819Z,24.87
2018-08-31T15:57:31.520Z,26.23
2018-08-31T16:00:07.400Z,23.53
2018-08-31T16:02:45.868Z,25.30
2018-08-31T16:05:20.706Z,24.33
2018-08-31T16:07:56.064Z,21.53
2018-08-31T16:10:31.566Z,22.73
2018-08-31T16:13:10.281Z,22.63
2018-08-31T16:15:45.086Z,24.40
2018-08-31T16:18:19.742Z,22.07
2018-08-31T16:20:54.560Z,26.97
2018-08-31T16:23:29.855Z,26.13
2018-08-31T16:26:05.127Z,25.13
2018-08-31T16:28:40.287Z,24.63
2018-08-31T16:31:14.629Z,25.73
2018-08-31T16:33:49.628Z,22.53
2018-08-31T16:36:24.611Z,23.43
2018-08-31T16:38:59.680Z,24.07
2018-08-31T16:41:34.609Z,21.13
2018-08-31T16:44:08.945Z,24.70
2018-08-31T16:46:43.328Z,23.07
2018-08-31T16:49:17.863Z,23.77
2018-08-31T16:51:52.273Z,24.17
2018-08-31T16:54:27.130Z,24.23
2018-08-31T16:57:01.968Z,25.40
2018-08-31T16:59:36.532Z,22.47
2018-08-31T17:02:11.221Z,22.90
2018-08-31T17:04:47.104Z,26.93
2018-08-31T17:07:21.728Z,24.33
2018-08-31T17:09:57.444Z,24.23
2018-08-31T17:12:32.201Z,22.53
2018-08-31T17:15:06.974Z,24.23
2018-08-31T17:17:41.531Z,28.77
2018-08-31T17:20:17.251Z,31.50
2018-08-31T17:22:52.143Z,29.00
2018-08-31T17:25:27.379Z,26.87
2018-08-31T17:28:10.324Z,28.60
2018-08-31T17:30:45.230Z,32.70
2018-08-31T17:33:26.441Z,32.10
2018-08-31T17:36:07.051Z,25.87
2018-08-31T17:38:41.842Z,29.37
2018-08-31T17:41:16.287Z,27.60
2018-08-31T17:43:50.852Z,28.40
2018-08-31T17:46:26.002Z,24.77
2018-08-31T17:49:01.235Z,32.70
2018-08-31T17:51:36.843Z,28.47
2018-08-31T17:54:11.408Z,30.20
2018-08-31T17:56:46.552Z,29.67
2018-08-31T17:59:21.027Z,29.57
2018-08-31T18:01:55.604Z,35.10
2018-08-31T18:04:30.100Z,32.17
2018-08-31T18:07:05.424Z,34.13
2018-08-31T18:09:40.484Z,31.90
2018-08-31T18:12:16.064Z,33.63
2018-08-31T18:14:50.741Z,33.77
2018-08-31T18:17:25.751Z,34.40
2018-08-31T18:20:00.387Z,34.33
2018-08-31T18:22:34.901Z,38.20
2018-08-31T18:25:09.196Z,35.33
2018-08-31T18:27:43.648Z,33.07
2018-08-31T18:30:18.302Z,27.47
2018-08-31T18:32:52.661Z,28.47
2018-08-31T18:35:27.091Z,27.77
2018-08-31T18:38:02.077Z,24.53
2018-08-31T18:40:37.024Z,25.50
2018-08-31T18:43:11.759Z,28.20
2018-08-31T18:45:46.612Z,23.93
2018-08-31T18:48:21.104Z,24.03
2018-08-31T18:50:56.184Z,25.37
2018-08-31T18:53:31.051Z,26.70
2018-08-31T18:56:05.854Z,25.93
2018-08-31T18:58:40.531Z,26.23
2018-08-31T19:01:14.910Z,23.23
2018-08-31T19:03:49.239Z,22.83
2018-08-31T19:06:24.044Z,22.43
2018-08-31T19:08:58.516Z,24.40
2018-08-31T19:11:33.479Z,21.93
2018-08-31T19:14:08.671Z,20.57
2018-08-31T19:16:43.415Z,22.10
2018-08-31T19:19:18.263Z,18.30
2018-08-31T19:21:52.527Z,20.00
2018-08-31T19:24:27.231Z,17.80
2018-08-31T19:27:01.825Z,18.53
2018-08-31T19:29:36.576Z,18.07
2018-08-31T19:32:11.127Z,20.80
2018-08-31T19:34:45.748Z,23.93
2018-08-31T19:37:20.078Z,22.67
2018-08-31T19:39:54.560Z,25.23
2018-08-31T19:42:29.025Z,21.50
2018-08-31T19:45:03.758Z,22.50
2018-08-31T19:47:38.854Z,20.97
2018-08-31T19:50:13.267Z,25.07
2018-08-31T19:52:48.172Z,27.67
2018-08-31T19:55:23.481Z,24.50
2018-08-31T19:57:58.018Z,26.97
2018-08-31T20:00:32.794Z,25.83
2018-08-31T20:03:08.336Z,32.37
2018-08-31T20:05:42.993Z,29.17
2018-08-31T20:08:17.524Z,30.67
2018-08-31T20:10:52.706Z,29.27
2018-08-31T20:13:27.605Z,32.23
2018-08-31T20:16:07.161Z,32.83
2018-08-31T20:18:42.351Z,39.83
2018-08-31T20:21:16.946Z,36.17
2018-08-31T20:23:52.823Z,43.73
2018-08-31T20:26:27.686Z,44.30
2018-08-31T20:29:02.167Z,38.53
2018-08-31T20:31:37.021Z,49.33
2018-08-31T20:34:11.868Z,43.10
2018-08-31T20:36:46.404Z,47.83
2018-08-31T20:39:22.828Z,48.77
2018-08-31T20:42:00.145Z,48.50
2018-08-31T20:44:34.729Z,48.80
2018-08-31T20:47:10.759Z,47.73
2018-08-31T20:49:46.217Z,43.73
2018-08-31T20:52:20.709Z,48.60
2018-08-31T20:54:55.233Z,48.77
2018-08-31T20:57:29.989Z,42.17
2018-08-31T21:00:04.539Z,52.20
2018-08-31T21:02:39.365Z,44.23
2018-08-31T21:05:14.380Z,48.93
2018-08-31T21:07:48.867Z,47.60
2018-08-31T21:10:23.679Z,42.47
2018-08-31T21:12:58.392Z,39.50
2018-08-31T21:15:33.073Z,40.50
2018-08-31T21:18:08.409Z,44.30
2018-08-31T21:20:43.067Z,40.83
2018-08-31T21:23:18.968Z,38.80
2018-08-31T21:25:54.035Z,38.93
2018-08-31T21:28:28.882Z,39.67
2018-08-31T21:31:03.957Z,35.27
2018-08-31T21:33:38.943Z,36.50
2018-08-31T21:36:13.711Z,38.03
2018-08-31T21:38:48.257Z,39.53
2018-08-31T21:41:23.310Z,36.43
2018-08-31T21:43:58.391Z,40.00
2018-08-31T21:46:33.976Z,32.80
2018-08-31T21:49:08.533Z,34.17
2018-08-31T21:51:43.219Z,37.83
2018-08-31T21:54:17.664Z,33.10
2018-08-31T21:56:52.615Z,32.77
2018-08-31T21:59:30.608Z,32.40
2018-08-31T22:02:05.255Z,31.40
2018-08-31T22:04:39.935Z,29.33
2018-08-31T22:07:14.479Z,29.77
2018-08-31T22:09:50.104Z,31.63
2018-08-31T22:12:24.984Z,33.23
2018-08-31T22:15:00.013Z,33.20
2018-08-31T22:17:34.715Z,33.77
2018-08-31T22:20:09.200Z,30.80
2018-08-31T22:22:43.768Z,29.63
2018-08-31T22:27:55.416Z,30.83
2018-08-31T22:30:31.725Z,32.80
2018-08-31T22:33:06.337Z,32.60
2018-08-31T22:35:41.481Z,31.13
2018-08-31T22:38:16.059Z,28.80
2018-08-31T22:40:50.556Z,29.77
2018-08-31T22:43:32.962Z,31.33
2018-08-31T22:46:07.617Z,28.87
2018-08-31T22:48:42.433Z,30.57
2018-08-31T22:51:16.927Z,34.47
2018-08-31T22:53:51.347Z,33.10
2018-08-31T22:56:25.963Z,31.20
2018-08-31T22:59:00.577Z,30.80
2018-08-31T23:01:34.948Z,27.97
2018-08-31T23:04:09.521Z,27.30
2018-08-31T23:06:44.595Z,32.33
2018-08-31T23:09:19.692Z,31.27
2018-08-31T23:11:54.634Z,30.07
2018-08-31T23:14:29.247Z,30.00
2018-08-31T23:17:03.772Z,29.57
2018-08-31T23:19:38.204Z,34.07
2018-08-31T23:22:12.851Z,40.07
2018-08-31T23:24:47.375Z,43.40
2018-08-31T23:27:21.879Z,33.73
2018-08-31T23:29:56.399Z,36.60
2018-08-31T23:32:31.325Z,36.00
2018-08-31T23:35:05.899Z,35.47
2018-08-31T23:37:40.262Z,34.47
2018-08-31T23:40:15.372Z,36.50
2018-08-31T23:42:49.827Z,42.40
2018-08-31T23:45:24.689Z,35.17
2018-08-31T23:47:59.228Z,37.23
2018-08-31T23:50:33.896Z,39.10
2018-08-31T23:53:08.637Z,36.37
2018-08-31T23:55:54.591Z,34.97
2018-08-31T23:58:29.643Z,37.40
